KMRY/MRY METAR and TAF weather

Enter ICAO airport designator
Station Type Date Time Source
KMRY METAR 2022/09/28 18:54 UTC NOAA

KMRY 281854Z 34007KT 10SM CLR 18/13 A3005 RMK AO2 SLP188 T01780133


Station Type Date Time Source
KMRY Decoded METAR 2022/09/28 18:54 UTC NOAA

MONTEREY PENINSULA AIRPORT, CA, United States (KMRY) 36-35N 121-51W 66M
Sep 28, 2022 - 02:54 PM EDT / 2022.09.28 1854 UTC
Wind: from the NNW (340 degrees) at 8 MPH (7 KT):0
Visibility: 10 mile(s):0
Sky conditions: clear
Temperature: 64.0 F (17.8 C)
Dew Point: 55.9 F (13.3 C)
Relative Humidity: 74%
Pressure (altimeter): 30.05 in. Hg (1017 hPa)
ob: KMRY 281854Z 34007KT 10SM CLR 18/13 A3005 RMK AO2 SLP188 T01780133
cycle: 19

Station Type Date Time Source
KMRY TAF 2022/09/28 18:28 UTC NOAA

TAF KMRY 281726Z 2818/2918 30006KT P6SM FEW005
FM282100 30009G16KT P6SM SKC
FM290300 23006KT P6SM BKN015
FM290600 22004KT P6SM BKN008
FM291200 VRB03KT 3SM BR OVC004

Example: see airport list